Bristol, VT (05443)

9:50 AM EST on December 19, 2014 (GMT -0500)
Conway Road | Change Station
CLOSE
Current Station
Personal Weather Station
Location: Starksboro, VT
Elevation: 1780 ft
Nearby Weather Stations

Elev 1780 ft 44.20 °N, 72.99 °W | Updated 5 minutes ago

Overcast
Overcast
19.0 °F
Feels Like 19 °F
N
1.0
Wind Variable Wind from WNW
Gusts 3.0 mph

Today
High -- | Low -- °F
--% Chance of Precip.
Yesterday
High -- | Low -- °F
Precip. -- in
7:23 AM 4:15 PM
Waning Crescent, 7% visible
Pressure 30.02 in
Visibility 10.0 miles
Clouds Overcast 2200 ft
Windchill 19 °F
Dew Point 17 °F
Humidity 93%
Rainfall 0.00 in
Snow Depth Not available.
UV 0.0 out of 12
Pollen .10 out of 12
Air Quality Not available.
Flu Activity Not available.
METAR K6B0 191435Z AUTO 01008G16KT 10SM OVC022 M03/M07 A3002 RMK AO2 T10271066

More Conditions Fewer Conditions

Pressure 30.02 in
Visibility 10.0 miles
Clouds Overcast 2200 ft
Windchill 19 °F
Dew Point 17 °F
Humidity 93%
Rainfall 0.00 in
Snow Depth Not available.
UV 0.0 out of 12
Pollen .10 out of 12
Air Quality Not available.
Flu Activity Not available.
METAR K6B0 191435Z AUTO 01008G16KT 10SM OVC022 M03/M07 A3002 RMK AO2 T10271066

More Conditions Fewer Conditions

10-Day Weather Forecast

Almanac

Astronomy

Dec. 19, 2014 Rise Set
Actual Time
Civil Twilight
Nautical Twilight
Astronomical Twilight
Moon
Length of Visible Light
Length of Day
Tomorrow will be .
, % of the Moon is Illuminated

Today's Extremes

State Highs State Lows

Community

WunderPhotos

Upload Photos

1,778,988 photos uploaded!

WunderBlogs® & News

Nearby

Air Quality

  Air Quality AQ Index Pollutant
Not available.

Snow Depth

Station Depth Elevation

Earthquake Activity

City Distance Mag. Time & Date
Minimum magnitude displayed is 2.5.

Coastal Water Temperatures

Place Temperature

Nearby Weather Stations